sensor_id;sensor_type;location;lat;lon;timestamp;P1;durP1;ratioP1;P2;durP2;ratioP2
4630;SDS011;2328;48.170;11.602;2023-05-29T00:01:45;7.73;;;4.40;;
4630;SDS011;2328;48.170;11.602;2023-05-29T00:04:14;9.63;;;4.70;;
4630;SDS011;2328;48.170;11.602;2023-05-29T00:06:44;6.63;;;4.17;;
4630;SDS011;2328;48.170;11.602;2023-05-29T00:09:15;6.90;;;4.43;;
4630;SDS011;2328;48.170;11.602;2023-05-29T00:11:44;7.80;;;4.23;;
4630;SDS011;2328;48.170;11.602;2023-05-29T00:14:17;7.17;;;3.90;;
4630;SDS011;2328;48.170;11.602;2023-05-29T00:16:47;7.53;;;4.80;;
4630;SDS011;2328;48.170;11.602;2023-05-29T00:19:18;7.37;;;3.80;;
4630;SDS011;2328;48.170;11.602;2023-05-29T00:21:47;8.67;;;4.30;;
4630;SDS011;2328;48.170;11.602;2023-05-29T00:24:16;9.80;;;4.80;;
4630;SDS011;2328;48.170;11.602;2023-05-29T00:26:46;9.57;;;4.67;;
4630;SDS011;2328;48.170;11.602;2023-05-29T00:29:16;8.53;;;4.17;;
4630;SDS011;2328;48.170;11.602;2023-05-29T00:31:44;6.43;;;4.13;;
4630;SDS011;2328;48.170;11.602;2023-05-29T00:34:15;9.50;;;5.23;;
4630;SDS011;2328;48.170;11.602;2023-05-29T00:36:44;9.03;;;3.87;;
4630;SDS011;2328;48.170;11.602;2023-05-29T00:39:14;7.60;;;4.57;;
4630;SDS011;2328;48.170;11.602;2023-05-29T00:41:43;8.60;;;4.60;;
4630;SDS011;2328;48.170;11.602;2023-05-29T00:44:12;5.03;;;4.03;;
4630;SDS011;2328;48.170;11.602;2023-05-29T00:46:40;9.03;;;3.70;;
4630;SDS011;2328;48.170;11.602;2023-05-29T00:49:09;9.27;;;4.50;;
4630;SDS011;2328;48.170;11.602;2023-05-29T00:51:39;6.63;;;3.93;;
4630;SDS011;2328;48.170;11.602;2023-05-29T00:54:09;8.53;;;5.03;;
4630;SDS011;2328;48.170;11.602;2023-05-29T00:56:39;11.87;;;5.17;;
4630;SDS011;2328;48.170;11.602;2023-05-29T00:59:10;6.80;;;4.23;;
4630;SDS011;2328;48.170;11.602;2023-05-29T01:01:40;9.00;;;4.33;;
4630;SDS011;2328;48.170;11.602;2023-05-29T01:04:09;13.40;;;4.20;;
4630;SDS011;2328;48.170;11.602;2023-05-29T01:06:40;9.77;;;3.70;;
4630;SDS011;2328;48.170;11.602;2023-05-29T01:09:09;8.00;;;4.23;;
4630;SDS011;2328;48.170;11.602;2023-05-29T01:11:41;13.13;;;4.13;;
4630;SDS011;2328;48.170;11.602;2023-05-29T01:14:17;8.23;;;4.17;;
4630;SDS011;2328;48.170;11.602;2023-05-29T01:16:48;4.57;;;3.00;;
4630;SDS011;2328;48.170;11.602;2023-05-29T01:19:21;6.77;;;3.57;;
4630;SDS011;2328;48.170;11.602;2023-05-29T01:21:59;7.97;;;4.37;;
4630;SDS011;2328;48.170;11.602;2023-05-29T01:24:32;11.03;;;4.70;;
4630;SDS011;2328;48.170;11.602;2023-05-29T01:27:07;8.23;;;4.17;;
4630;SDS011;2328;48.170;11.602;2023-05-29T01:29:38;6.77;;;3.67;;
4630;SDS011;2328;48.170;11.602;2023-05-29T01:32:09;9.80;;;4.07;;
4630;SDS011;2328;48.170;11.602;2023-05-29T01:34:37;5.80;;;3.70;;
4630;SDS011;2328;48.170;11.602;2023-05-29T01:37:06;6.33;;;3.87;;
4630;SDS011;2328;48.170;11.602;2023-05-29T01:39:35;7.90;;;4.10;;
4630;SDS011;2328;48.170;11.602;2023-05-29T01:42:04;9.23;;;4.37;;
4630;SDS011;2328;48.170;11.602;2023-05-29T01:44:35;8.70;;;4.60;;
4630;SDS011;2328;48.170;11.602;2023-05-29T01:47:04;6.50;;;4.03;;
4630;SDS011;2328;48.170;11.602;2023-05-29T01:49:33;6.10;;;3.83;;
4630;SDS011;2328;48.170;11.602;2023-05-29T01:52:03;6.83;;;3.60;;
4630;SDS011;2328;48.170;11.602;2023-05-29T01:54:32;9.37;;;4.27;;
4630;SDS011;2328;48.170;11.602;2023-05-29T01:57:00;8.60;;;4.93;;
4630;SDS011;2328;48.170;11.602;2023-05-29T01:59:32;12.93;;;5.43;;
4630;SDS011;2328;48.170;11.602;2023-05-29T02:02:06;11.73;;;5.60;;
4630;SDS011;2328;48.170;11.602;2023-05-29T02:04:35;7.50;;;3.63;;
4630;SDS011;2328;48.170;11.602;2023-05-29T02:07:04;10.80;;;4.60;;
4630;SDS011;2328;48.170;11.602;2023-05-29T02:09:34;6.70;;;3.97;;
4630;SDS011;2328;48.170;11.602;2023-05-29T02:12:03;8.63;;;5.00;;
4630;SDS011;2328;48.170;11.602;2023-05-29T02:14:33;10.03;;;5.47;;
4630;SDS011;2328;48.170;11.602;2023-05-29T02:17:02;5.83;;;3.97;;
4630;SDS011;2328;48.170;11.602;2023-05-29T02:19:33;7.77;;;4.67;;
4630;SDS011;2328;48.170;11.602;2023-05-29T02:22:03;7.60;;;4.53;;
4630;SDS011;2328;48.170;11.602;2023-05-29T02:24:47;6.67;;;4.90;;
4630;SDS011;2328;48.170;11.602;2023-05-29T02:27:19;9.60;;;5.40;;
4630;SDS011;2328;48.170;11.602;2023-05-29T02:29:48;8.93;;;4.50;;
4630;SDS011;2328;48.170;11.602;2023-05-29T02:32:17;7.60;;;4.43;;
4630;SDS011;2328;48.170;11.602;2023-05-29T02:34:47;8.93;;;4.67;;
4630;SDS011;2328;48.170;11.602;2023-05-29T02:37:16;7.20;;;4.33;;
4630;SDS011;2328;48.170;11.602;2023-05-29T02:39:44;9.83;;;5.23;;
4630;SDS011;2328;48.170;11.602;2023-05-29T02:42:13;7.93;;;5.30;;
4630;SDS011;2328;48.170;11.602;2023-05-29T02:44:41;8.10;;;4.40;;
4630;SDS011;2328;48.170;11.602;2023-05-29T02:47:10;10.67;;;4.80;;
4630;SDS011;2328;48.170;11.602;2023-05-29T02:49:39;14.10;;;5.13;;
4630;SDS011;2328;48.170;11.602;2023-05-29T02:52:09;8.30;;;4.50;;
4630;SDS011;2328;48.170;11.602;2023-05-29T02:54:38;12.50;;;4.97;;
4630;SDS011;2328;48.170;11.602;2023-05-29T02:57:07;7.67;;;4.93;;
4630;SDS011;2328;48.170;11.602;2023-05-29T02:59:37;9.63;;;5.20;;
4630;SDS011;2328;48.170;11.602;2023-05-29T03:02:06;9.93;;;5.30;;
4630;SDS011;2328;48.170;11.602;2023-05-29T03:04:41;11.27;;;5.30;;
4630;SDS011;2328;48.170;11.602;2023-05-29T03:07:11;10.20;;;4.67;;
4630;SDS011;2328;48.170;11.602;2023-05-29T03:09:40;11.00;;;5.60;;
4630;SDS011;2328;48.170;11.602;2023-05-29T03:12:08;12.17;;;5.57;;
4630;SDS011;2328;48.170;11.602;2023-05-29T03:14:37;9.60;;;5.63;;
4630;SDS011;2328;48.170;11.602;2023-05-29T03:17:06;8.17;;;5.30;;
4630;SDS011;2328;48.170;11.602;2023-05-29T03:19:35;7.33;;;5.20;;
4630;SDS011;2328;48.170;11.602;2023-05-29T03:22:05;11.63;;;5.20;;
4630;SDS011;2328;48.170;11.602;2023-05-29T03:24:35;7.63;;;4.20;;
4630;SDS011;2328;48.170;11.602;2023-05-29T03:27:04;12.07;;;5.30;;
4630;SDS011;2328;48.170;11.602;2023-05-29T03:29:33;10.30;;;5.03;;
4630;SDS011;2328;48.170;11.602;2023-05-29T03:32:02;14.20;;;5.57;;
4630;SDS011;2328;48.170;11.602;2023-05-29T03:34:32;15.23;;;5.53;;
4630;SDS011;2328;48.170;11.602;2023-05-29T03:37:01;10.20;;;5.20;;
4630;SDS011;2328;48.170;11.602;2023-05-29T03:39:29;13.00;;;6.33;;
4630;SDS011;2328;48.170;11.602;2023-05-29T03:41:59;9.83;;;5.33;;
4630;SDS011;2328;48.170;11.602;2023-05-29T03:44:32;8.00;;;5.13;;
4630;SDS011;2328;48.170;11.602;2023-05-29T03:47:01;13.20;;;5.60;;
4630;SDS011;2328;48.170;11.602;2023-05-29T03:49:30;12.93;;;5.70;;
4630;SDS011;2328;48.170;11.602;2023-05-29T03:51:58;7.00;;;4.07;;
4630;SDS011;2328;48.170;11.602;2023-05-29T03:54:27;10.27;;;5.43;;
4630;SDS011;2328;48.170;11.602;2023-05-29T03:56:55;11.10;;;5.23;;
4630;SDS011;2328;48.170;11.602;2023-05-29T03:59:25;8.80;;;5.30;;
4630;SDS011;2328;48.170;11.602;2023-05-29T04:01:54;8.47;;;4.53;;
4630;SDS011;2328;48.170;11.602;2023-05-29T04:04:22;7.40;;;4.43;;
4630;SDS011;2328;48.170;11.602;2023-05-29T04:06:51;8.17;;;4.73;;
4630;SDS011;2328;48.170;11.602;2023-05-29T04:09:20;10.13;;;4.97;;
4630;SDS011;2328;48.170;11.602;2023-05-29T04:11:49;8.70;;;4.60;;
4630;SDS011;2328;48.170;11.602;2023-05-29T04:14:18;13.27;;;5.90;;
4630;SDS011;2328;48.170;11.602;2023-05-29T04:16:48;8.00;;;4.90;;
4630;SDS011;2328;48.170;11.602;2023-05-29T04:19:17;8.27;;;5.23;;
4630;SDS011;2328;48.170;11.602;2023-05-29T04:21:45;9.20;;;4.13;;
4630;SDS011;2328;48.170;11.602;2023-05-29T04:24:16;7.10;;;3.97;;
4630;SDS011;2328;48.170;11.602;2023-05-29T04:26:44;9.30;;;4.73;;
4630;SDS011;2328;48.170;11.602;2023-05-29T04:29:14;7.80;;;5.17;;
4630;SDS011;2328;48.170;11.602;2023-05-29T04:31:43;11.63;;;5.20;;
4630;SDS011;2328;48.170;11.602;2023-05-29T04:34:15;10.47;;;5.43;;
4630;SDS011;2328;48.170;11.602;2023-05-29T04:36:43;8.20;;;4.47;;
4630;SDS011;2328;48.170;11.602;2023-05-29T04:39:12;12.47;;;5.20;;
4630;SDS011;2328;48.170;11.602;2023-05-29T04:41:41;9.67;;;4.70;;
4630;SDS011;2328;48.170;11.602;2023-05-29T04:44:09;6.57;;;4.47;;
4630;SDS011;2328;48.170;11.602;2023-05-29T04:46:38;7.60;;;4.30;;
4630;SDS011;2328;48.170;11.602;2023-05-29T04:49:06;7.97;;;4.47;;
4630;SDS011;2328;48.170;11.602;2023-05-29T04:51:36;8.30;;;4.50;;
4630;SDS011;2328;48.170;11.602;2023-05-29T04:54:07;9.70;;;4.30;;
4630;SDS011;2328;48.170;11.602;2023-05-29T04:56:36;10.27;;;5.90;;
4630;SDS011;2328;48.170;11.602;2023-05-29T04:59:06;12.80;;;5.00;;
4630;SDS011;2328;48.170;11.602;2023-05-29T05:01:35;9.60;;;4.30;;
4630;SDS011;2328;48.170;11.602;2023-05-29T05:04:04;7.60;;;4.70;;
4630;SDS011;2328;48.170;11.602;2023-05-29T05:06:32;10.33;;;4.77;;
4630;SDS011;2328;48.170;11.602;2023-05-29T05:09:07;6.50;;;3.70;;
4630;SDS011;2328;48.170;11.602;2023-05-29T05:11:36;8.07;;;4.27;;
4630;SDS011;2328;48.170;11.602;2023-05-29T05:14:05;10.23;;;4.80;;
4630;SDS011;2328;48.170;11.602;2023-05-29T05:16:33;8.37;;;4.30;;
4630;SDS011;2328;48.170;11.602;2023-05-29T05:19:02;10.67;;;5.00;;
4630;SDS011;2328;48.170;11.602;2023-05-29T05:21:32;10.50;;;4.90;;
4630;SDS011;2328;48.170;11.602;2023-05-29T05:24:00;7.30;;;4.13;;
4630;SDS011;2328;48.170;11.602;2023-05-29T05:26:30;7.80;;;4.50;;
4630;SDS011;2328;48.170;11.602;2023-05-29T05:28:59;10.93;;;5.20;;
4630;SDS011;2328;48.170;11.602;2023-05-29T05:31:28;15.50;;;5.20;;
4630;SDS011;2328;48.170;11.602;2023-05-29T05:33:57;8.23;;;5.10;;
4630;SDS011;2328;48.170;11.602;2023-05-29T05:36:26;10.00;;;4.60;;
4630;SDS011;2328;48.170;11.602;2023-05-29T05:38:55;10.67;;;4.33;;
4630;SDS011;2328;48.170;11.602;2023-05-29T05:41:24;8.77;;;4.67;;
4630;SDS011;2328;48.170;11.602;2023-05-29T05:43:54;11.03;;;4.77;;
4630;SDS011;2328;48.170;11.602;2023-05-29T05:46:23;8.47;;;5.23;;
4630;SDS011;2328;48.170;11.602;2023-05-29T05:48:53;10.30;;;4.70;;
4630;SDS011;2328;48.170;11.602;2023-05-29T05:51:30;6.27;;;3.73;;
4630;SDS011;2328;48.170;11.602;2023-05-29T05:54:02;10.27;;;4.60;;
4630;SDS011;2328;48.170;11.602;2023-05-29T05:56:31;6.27;;;3.63;;
4630;SDS011;2328;48.170;11.602;2023-05-29T05:59:01;7.03;;;4.47;;
4630;SDS011;2328;48.170;11.602;2023-05-29T06:01:30;8.13;;;4.13;;
4630;SDS011;2328;48.170;11.602;2023-05-29T06:04:07;7.27;;;4.10;;
4630;SDS011;2328;48.170;11.602;2023-05-29T06:06:36;4.53;;;3.23;;
4630;SDS011;2328;48.170;11.602;2023-05-29T06:09:04;5.70;;;3.50;;
4630;SDS011;2328;48.170;11.602;2023-05-29T06:11:33;6.67;;;3.47;;
4630;SDS011;2328;48.170;11.602;2023-05-29T06:14:03;6.00;;;3.20;;
4630;SDS011;2328;48.170;11.602;2023-05-29T06:16:31;4.33;;;3.30;;
4630;SDS011;2328;48.170;11.602;2023-05-29T06:19:00;6.47;;;3.57;;
4630;SDS011;2328;48.170;11.602;2023-05-29T06:21:31;7.00;;;3.63;;
4630;SDS011;2328;48.170;11.602;2023-05-29T06:23:59;7.33;;;3.57;;
4630;SDS011;2328;48.170;11.602;2023-05-29T06:26:28;4.80;;;3.40;;
4630;SDS011;2328;48.170;11.602;2023-05-29T06:28:56;7.60;;;3.77;;
4630;SDS011;2328;48.170;11.602;2023-05-29T06:31:26;10.03;;;3.17;;
4630;SDS011;2328;48.170;11.602;2023-05-29T06:33:55;5.63;;;2.60;;
4630;SDS011;2328;48.170;11.602;2023-05-29T06:36:30;5.10;;;2.80;;
4630;SDS011;2328;48.170;11.602;2023-05-29T06:38:59;4.70;;;3.70;;
4630;SDS011;2328;48.170;11.602;2023-05-29T06:41:28;6.87;;;3.70;;
4630;SDS011;2328;48.170;11.602;2023-05-29T06:43:58;2.67;;;2.40;;
4630;SDS011;2328;48.170;11.602;2023-05-29T06:46:28;4.40;;;2.73;;
4630;SDS011;2328;48.170;11.602;2023-05-29T06:48:58;6.10;;;3.27;;
4630;SDS011;2328;48.170;11.602;2023-05-29T06:51:30;6.20;;;2.57;;
4630;SDS011;2328;48.170;11.602;2023-05-29T06:53:59;3.90;;;2.20;;
4630;SDS011;2328;48.170;11.602;2023-05-29T06:56:28;5.27;;;3.63;;
4630;SDS011;2328;48.170;11.602;2023-05-29T06:58:56;5.87;;;2.87;;
4630;SDS011;2328;48.170;11.602;2023-05-29T07:01:25;4.97;;;3.40;;
4630;SDS011;2328;48.170;11.602;2023-05-29T07:03:55;5.50;;;3.00;;
4630;SDS011;2328;48.170;11.602;2023-05-29T07:06:25;5.30;;;3.10;;
4630;SDS011;2328;48.170;11.602;2023-05-29T07:08:54;2.67;;;2.47;;
4630;SDS011;2328;48.170;11.602;2023-05-29T07:11:22;5.00;;;3.10;;
4630;SDS011;2328;48.170;11.602;2023-05-29T07:13:52;6.10;;;3.53;;
4630;SDS011;2328;48.170;11.602;2023-05-29T07:16:22;3.90;;;2.63;;
4630;SDS011;2328;48.170;11.602;2023-05-29T07:18:51;5.00;;;2.70;;
4630;SDS011;2328;48.170;11.602;2023-05-29T07:21:20;5.03;;;3.20;;
4630;SDS011;2328;48.170;11.602;2023-05-29T07:23:50;3.87;;;3.13;;
4630;SDS011;2328;48.170;11.602;2023-05-29T07:26:20;6.17;;;3.10;;
4630;SDS011;2328;48.170;11.602;2023-05-29T07:28:50;3.80;;;2.70;;
4630;SDS011;2328;48.170;11.602;2023-05-29T07:31:20;7.00;;;4.17;;
4630;SDS011;2328;48.170;11.602;2023-05-29T07:33:49;9.47;;;3.50;;
4630;SDS011;2328;48.170;11.602;2023-05-29T07:36:18;6.00;;;3.60;;
4630;SDS011;2328;48.170;11.602;2023-05-29T07:38:48;5.00;;;3.20;;
4630;SDS011;2328;48.170;11.602;2023-05-29T07:41:16;5.40;;;3.57;;
4630;SDS011;2328;48.170;11.602;2023-05-29T07:43:45;7.50;;;3.30;;
4630;SDS011;2328;48.170;11.602;2023-05-29T07:46:18;5.43;;;3.43;;
4630;SDS011;2328;48.170;11.602;2023-05-29T07:48:47;3.20;;;2.53;;
4630;SDS011;2328;48.170;11.602;2023-05-29T07:51:15;4.13;;;2.47;;
4630;SDS011;2328;48.170;11.602;2023-05-29T07:53:44;5.40;;;2.70;;
4630;SDS011;2328;48.170;11.602;2023-05-29T07:56:14;5.57;;;3.53;;
4630;SDS011;2328;48.170;11.602;2023-05-29T07:58:44;4.87;;;2.80;;
4630;SDS011;2328;48.170;11.602;2023-05-29T08:01:13;5.73;;;3.20;;
4630;SDS011;2328;48.170;11.602;2023-05-29T08:03:41;5.70;;;3.57;;
4630;SDS011;2328;48.170;11.602;2023-05-29T08:06:12;3.93;;;2.67;;
4630;SDS011;2328;48.170;11.602;2023-05-29T08:08:40;6.27;;;3.30;;
4630;SDS011;2328;48.170;11.602;2023-05-29T08:11:09;3.80;;;2.37;;
4630;SDS011;2328;48.170;11.602;2023-05-29T08:13:40;5.33;;;2.80;;
4630;SDS011;2328;48.170;11.602;2023-05-29T08:16:09;5.17;;;3.10;;
4630;SDS011;2328;48.170;11.602;2023-05-29T08:18:40;4.40;;;3.23;;
4630;SDS011;2328;48.170;11.602;2023-05-29T08:21:10;4.70;;;3.10;;
4630;SDS011;2328;48.170;11.602;2023-05-29T08:23:40;4.07;;;2.77;;
4630;SDS011;2328;48.170;11.602;2023-05-29T08:26:08;3.60;;;3.00;;
4630;SDS011;2328;48.170;11.602;2023-05-29T08:28:36;5.07;;;2.60;;
4630;SDS011;2328;48.170;11.602;2023-05-29T08:31:09;5.00;;;2.90;;
4630;SDS011;2328;48.170;11.602;2023-05-29T08:33:39;5.33;;;2.63;;
4630;SDS011;2328;48.170;11.602;2023-05-29T08:36:08;2.20;;;2.00;;
4630;SDS011;2328;48.170;11.602;2023-05-29T08:38:37;6.37;;;3.27;;
4630;SDS011;2328;48.170;11.602;2023-05-29T08:41:05;5.27;;;2.80;;
4630;SDS011;2328;48.170;11.602;2023-05-29T08:43:37;3.90;;;3.00;;
4630;SDS011;2328;48.170;11.602;2023-05-29T08:46:06;7.37;;;3.10;;
4630;SDS011;2328;48.170;11.602;2023-05-29T08:48:37;3.67;;;2.70;;
4630;SDS011;2328;48.170;11.602;2023-05-29T08:51:08;7.20;;;2.77;;
4630;SDS011;2328;48.170;11.602;2023-05-29T08:53:38;3.87;;;2.30;;
4630;SDS011;2328;48.170;11.602;2023-05-29T08:56:09;3.33;;;2.30;;
4630;SDS011;2328;48.170;11.602;2023-05-29T08:58:55;2.77;;;2.27;;
4630;SDS011;2328;48.170;11.602;2023-05-29T09:01:25;4.20;;;2.70;;
4630;SDS011;2328;48.170;11.602;2023-05-29T09:03:57;16.13;;;2.57;;
4630;SDS011;2328;48.170;11.602;2023-05-29T09:06:26;4.10;;;2.33;;
4630;SDS011;2328;48.170;11.602;2023-05-29T09:08:54;5.37;;;2.40;;
4630;SDS011;2328;48.170;11.602;2023-05-29T09:11:23;3.73;;;2.53;;
4630;SDS011;2328;48.170;11.602;2023-05-29T09:13:52;1.97;;;1.70;;
4630;SDS011;2328;48.170;11.602;2023-05-29T09:16:20;1.70;;;1.60;;
4630;SDS011;2328;48.170;11.602;2023-05-29T09:18:49;3.73;;;2.40;;
4630;SDS011;2328;48.170;11.602;2023-05-29T09:21:26;7.10;;;2.90;;
4630;SDS011;2328;48.170;11.602;2023-05-29T09:23:58;3.77;;;2.00;;
4630;SDS011;2328;48.170;11.602;2023-05-29T09:26:30;2.80;;;2.40;;
4630;SDS011;2328;48.170;11.602;2023-05-29T09:28:59;2.40;;;2.10;;
4630;SDS011;2328;48.170;11.602;2023-05-29T09:31:27;3.77;;;2.57;;
4630;SDS011;2328;48.170;11.602;2023-05-29T09:33:56;2.93;;;2.23;;
4630;SDS011;2328;48.170;11.602;2023-05-29T09:36:31;4.40;;;2.53;;
4630;SDS011;2328;48.170;11.602;2023-05-29T09:39:01;4.20;;;2.50;;
4630;SDS011;2328;48.170;11.602;2023-05-29T09:41:42;4.37;;;2.40;;
4630;SDS011;2328;48.170;11.602;2023-05-29T09:44:12;3.37;;;2.10;;
4630;SDS011;2328;48.170;11.602;2023-05-29T09:46:42;3.23;;;1.90;;
4630;SDS011;2328;48.170;11.602;2023-05-29T09:49:12;2.70;;;2.17;;
4630;SDS011;2328;48.170;11.602;2023-05-29T09:51:44;3.30;;;2.47;;
4630;SDS011;2328;48.170;11.602;2023-05-29T09:54:15;4.07;;;2.40;;
4630;SDS011;2328;48.170;11.602;2023-05-29T09:56:46;4.50;;;2.60;;
4630;SDS011;2328;48.170;11.602;2023-05-29T09:59:25;5.90;;;2.27;;
4630;SDS011;2328;48.170;11.602;2023-05-29T10:02:07;2.63;;;2.17;;
4630;SDS011;2328;48.170;11.602;2023-05-29T10:04:54;2.27;;;2.00;;
4630;SDS011;2328;48.170;11.602;2023-05-29T10:07:31;8.33;;;2.67;;
4630;SDS011;2328;48.170;11.602;2023-05-29T10:10:01;3.60;;;2.20;;
4630;SDS011;2328;48.170;11.602;2023-05-29T10:12:39;2.30;;;2.10;;
4630;SDS011;2328;48.170;11.602;2023-05-29T10:15:11;3.97;;;2.30;;
4630;SDS011;2328;48.170;11.602;2023-05-29T10:17:57;2.40;;;1.97;;
4630;SDS011;2328;48.170;11.602;2023-05-29T10:20:29;3.20;;;2.17;;
4630;SDS011;2328;48.170;11.602;2023-05-29T10:26:02;4.30;;;2.43;;
4630;SDS011;2328;48.170;11.602;2023-05-29T10:28:55;2.17;;;1.93;;
4630;SDS011;2328;48.170;11.602;2023-05-29T10:31:30;2.90;;;2.23;;
4630;SDS011;2328;48.170;11.602;2023-05-29T10:34:03;4.10;;;2.53;;
4630;SDS011;2328;48.170;11.602;2023-05-29T10:36:36;11.63;;;1.57;;
4630;SDS011;2328;48.170;11.602;2023-05-29T10:39:06;5.03;;;2.67;;
4630;SDS011;2328;48.170;11.602;2023-05-29T10:41:36;5.33;;;2.43;;
4630;SDS011;2328;48.170;11.602;2023-05-29T10:47:03;2.73;;;2.10;;
4630;SDS011;2328;48.170;11.602;2023-05-29T10:49:32;5.10;;;2.10;;
4630;SDS011;2328;48.170;11.602;2023-05-29T10:52:02;3.03;;;1.93;;
4630;SDS011;2328;48.170;11.602;2023-05-29T10:54:40;2.77;;;2.30;;
4630;SDS011;2328;48.170;11.602;2023-05-29T10:57:10;2.07;;;1.73;;
4630;SDS011;2328;48.170;11.602;2023-05-29T11:02:47;3.40;;;2.57;;
4630;SDS011;2328;48.170;11.602;2023-05-29T11:05:22;2.87;;;1.73;;
4630;SDS011;2328;48.170;11.602;2023-05-29T11:07:55;3.87;;;2.13;;
4630;SDS011;2328;48.170;11.602;2023-05-29T11:10:44;3.53;;;2.03;;
4630;SDS011;2328;48.170;11.602;2023-05-29T11:13:34;5.30;;;1.70;;
4630;SDS011;2328;48.170;11.602;2023-05-29T11:16:10;3.50;;;2.03;;
4630;SDS011;2328;48.170;11.602;2023-05-29T11:18:55;3.80;;;2.63;;
4630;SDS011;2328;48.170;11.602;2023-05-29T11:21:30;3.60;;;2.00;;
4630;SDS011;2328;48.170;11.602;2023-05-29T11:24:09;2.87;;;1.80;;
4630;SDS011;2328;48.170;11.602;2023-05-29T11:26:41;2.30;;;1.50;;
4630;SDS011;2328;48.170;11.602;2023-05-29T11:29:15;2.33;;;2.13;;
4630;SDS011;2328;48.170;11.602;2023-05-29T11:31:54;3.13;;;1.97;;
4630;SDS011;2328;48.170;11.602;2023-05-29T11:34:28;3.03;;;1.77;;
4630;SDS011;2328;48.170;11.602;2023-05-29T11:36:56;7.73;;;2.47;;
4630;SDS011;2328;48.170;11.602;2023-05-29T11:39:26;1.73;;;1.30;;
4630;SDS011;2328;48.170;11.602;2023-05-29T11:41:55;2.80;;;2.00;;
4630;SDS011;2328;48.170;11.602;2023-05-29T11:44:26;2.07;;;1.50;;
4630;SDS011;2328;48.170;11.602;2023-05-29T11:47:01;3.60;;;2.30;;
4630;SDS011;2328;48.170;11.602;2023-05-29T11:49:30;4.33;;;2.00;;
4630;SDS011;2328;48.170;11.602;2023-05-29T11:52:07;3.53;;;1.77;;
4630;SDS011;2328;48.170;11.602;2023-05-29T11:54:42;3.67;;;1.73;;
4630;SDS011;2328;48.170;11.602;2023-05-29T11:57:17;3.53;;;2.27;;
4630;SDS011;2328;48.170;11.602;2023-05-29T11:59:50;3.97;;;2.27;;
4630;SDS011;2328;48.170;11.602;2023-05-29T12:02:29;2.37;;;2.07;;
4630;SDS011;2328;48.170;11.602;2023-05-29T12:05:17;2.50;;;1.87;;
4630;SDS011;2328;48.170;11.602;2023-05-29T12:07:49;2.67;;;1.70;;
4630;SDS011;2328;48.170;11.602;2023-05-29T15:10:32;6.47;;;2.40;;
4630;SDS011;2328;48.170;11.602;2023-05-29T15:13:01;2.37;;;1.90;;
4630;SDS011;2328;48.170;11.602;2023-05-29T15:15:33;2.83;;;1.63;;
4630;SDS011;2328;48.170;11.602;2023-05-29T15:18:13;2.97;;;1.97;;
4630;SDS011;2328;48.170;11.602;2023-05-29T15:20:44;2.30;;;1.80;;
4630;SDS011;2328;48.170;11.602;2023-05-29T15:23:15;5.93;;;2.13;;
4630;SDS011;2328;48.170;11.602;2023-05-29T15:25:45;3.13;;;1.93;;
4630;SDS011;2328;48.170;11.602;2023-05-29T15:28:13;2.13;;;1.60;;
4630;SDS011;2328;48.170;11.602;2023-05-29T15:30:42;2.77;;;1.80;;
4630;SDS011;2328;48.170;11.602;2023-05-29T15:33:10;1.90;;;1.80;;
4630;SDS011;2328;48.170;11.602;2023-05-29T15:35:39;2.23;;;1.93;;
4630;SDS011;2328;48.170;11.602;2023-05-29T15:38:09;2.67;;;1.93;;
4630;SDS011;2328;48.170;11.602;2023-05-29T15:40:39;3.10;;;2.20;;
4630;SDS011;2328;48.170;11.602;2023-05-29T15:43:13;3.73;;;1.73;;
4630;SDS011;2328;48.170;11.602;2023-05-29T15:45:42;2.13;;;1.83;;
4630;SDS011;2328;48.170;11.602;2023-05-29T15:48:11;2.53;;;2.00;;
4630;SDS011;2328;48.170;11.602;2023-05-29T15:50:40;3.60;;;1.93;;
4630;SDS011;2328;48.170;11.602;2023-05-29T15:53:09;1.73;;;1.63;;
4630;SDS011;2328;48.170;11.602;2023-05-29T15:55:37;2.80;;;2.07;;
4630;SDS011;2328;48.170;11.602;2023-05-29T15:58:06;4.03;;;2.37;;
4630;SDS011;2328;48.170;11.602;2023-05-29T16:00:37;2.10;;;1.67;;
4630;SDS011;2328;48.170;11.602;2023-05-29T16:03:05;3.57;;;2.30;;
4630;SDS011;2328;48.170;11.602;2023-05-29T16:05:34;3.67;;;2.77;;
4630;SDS011;2328;48.170;11.602;2023-05-29T16:08:03;7.30;;;1.67;;
4630;SDS011;2328;48.170;11.602;2023-05-29T16:10:43;1.80;;;1.70;;
4630;SDS011;2328;48.170;11.602;2023-05-29T16:13:12;5.17;;;1.43;;
4630;SDS011;2328;48.170;11.602;2023-05-29T16:15:41;2.00;;;1.70;;
4630;SDS011;2328;48.170;11.602;2023-05-29T16:18:12;1.40;;;1.30;;
4630;SDS011;2328;48.170;11.602;2023-05-29T16:20:41;2.83;;;1.63;;
4630;SDS011;2328;48.170;11.602;2023-05-29T16:23:09;3.20;;;1.93;;
4630;SDS011;2328;48.170;11.602;2023-05-29T16:25:37;3.07;;;1.73;;
4630;SDS011;2328;48.170;11.602;2023-05-29T16:28:06;1.90;;;1.50;;
4630;SDS011;2328;48.170;11.602;2023-05-29T16:30:36;1.90;;;1.77;;
4630;SDS011;2328;48.170;11.602;2023-05-29T16:33:07;3.20;;;1.97;;
4630;SDS011;2328;48.170;11.602;2023-05-29T16:35:35;1.73;;;1.63;;
4630;SDS011;2328;48.170;11.602;2023-05-29T16:38:04;1.67;;;1.57;;
4630;SDS011;2328;48.170;11.602;2023-05-29T16:40:33;9.03;;;1.50;;
4630;SDS011;2328;48.170;11.602;2023-05-29T16:43:04;1.97;;;1.30;;
4630;SDS011;2328;48.170;11.602;2023-05-29T16:45:33;3.77;;;1.90;;
4630;SDS011;2328;48.170;11.602;2023-05-29T16:48:02;4.93;;;2.10;;
4630;SDS011;2328;48.170;11.602;2023-05-29T16:50:32;2.03;;;1.07;;
4630;SDS011;2328;48.170;11.602;2023-05-29T16:53:01;3.23;;;1.17;;
4630;SDS011;2328;48.170;11.602;2023-05-29T16:55:29;2.53;;;1.57;;
4630;SDS011;2328;48.170;11.602;2023-05-29T16:57:58;4.80;;;1.50;;
4630;SDS011;2328;48.170;11.602;2023-05-29T17:00:27;3.30;;;1.80;;
4630;SDS011;2328;48.170;11.602;2023-05-29T17:02:55;3.20;;;1.97;;
4630;SDS011;2328;48.170;11.602;2023-05-29T17:05:24;1.60;;;1.50;;
4630;SDS011;2328;48.170;11.602;2023-05-29T17:07:54;2.93;;;1.40;;
4630;SDS011;2328;48.170;11.602;2023-05-29T17:10:23;2.00;;;1.43;;
4630;SDS011;2328;48.170;11.602;2023-05-29T17:12:58;1.40;;;1.30;;
4630;SDS011;2328;48.170;11.602;2023-05-29T17:15:28;2.53;;;1.40;;
4630;SDS011;2328;48.170;11.602;2023-05-29T17:17:56;2.80;;;1.70;;
4630;SDS011;2328;48.170;11.602;2023-05-29T17:20:25;4.20;;;1.73;;
4630;SDS011;2328;48.170;11.602;2023-05-29T17:22:57;2.20;;;1.40;;
4630;SDS011;2328;48.170;11.602;2023-05-29T17:25:26;3.33;;;2.00;;
4630;SDS011;2328;48.170;11.602;2023-05-29T17:27:54;2.13;;;1.53;;
4630;SDS011;2328;48.170;11.602;2023-05-29T17:30:24;5.00;;;2.00;;
4630;SDS011;2328;48.170;11.602;2023-05-29T17:32:52;3.50;;;1.60;;
4630;SDS011;2328;48.170;11.602;2023-05-29T17:35:22;4.10;;;2.33;;
4630;SDS011;2328;48.170;11.602;2023-05-29T17:37:50;2.30;;;1.57;;
4630;SDS011;2328;48.170;11.602;2023-05-29T17:40:20;2.77;;;2.13;;
4630;SDS011;2328;48.170;11.602;2023-05-29T17:42:49;4.30;;;1.90;;
4630;SDS011;2328;48.170;11.602;2023-05-29T17:45:17;1.50;;;1.30;;
4630;SDS011;2328;48.170;11.602;2023-05-29T17:47:46;1.83;;;1.30;;
4630;SDS011;2328;48.170;11.602;2023-05-29T17:50:16;2.70;;;1.60;;
4630;SDS011;2328;48.170;11.602;2023-05-29T17:52:49;3.03;;;1.93;;
4630;SDS011;2328;48.170;11.602;2023-05-29T17:55:17;1.77;;;1.67;;
4630;SDS011;2328;48.170;11.602;2023-05-29T17:57:47;3.73;;;2.53;;
4630;SDS011;2328;48.170;11.602;2023-05-29T18:00:16;2.67;;;1.33;;
4630;SDS011;2328;48.170;11.602;2023-05-29T18:02:45;3.67;;;1.97;;
4630;SDS011;2328;48.170;11.602;2023-05-29T18:05:14;2.60;;;1.50;;
4630;SDS011;2328;48.170;11.602;2023-05-29T18:07:42;2.50;;;1.70;;
4630;SDS011;2328;48.170;11.602;2023-05-29T18:10:14;1.73;;;1.63;;
4630;SDS011;2328;48.170;11.602;2023-05-29T18:12:48;1.53;;;1.43;;
4630;SDS011;2328;48.170;11.602;2023-05-29T18:15:18;2.90;;;1.50;;
4630;SDS011;2328;48.170;11.602;2023-05-29T18:17:49;2.60;;;1.63;;
4630;SDS011;2328;48.170;11.602;2023-05-29T18:20:20;3.03;;;1.40;;
4630;SDS011;2328;48.170;11.602;2023-05-29T18:22:55;4.23;;;2.30;;
4630;SDS011;2328;48.170;11.602;2023-05-29T18:25:23;3.37;;;1.90;;
4630;SDS011;2328;48.170;11.602;2023-05-29T18:27:54;2.50;;;1.83;;
4630;SDS011;2328;48.170;11.602;2023-05-29T18:30:24;1.43;;;1.33;;